sensor_id;sensor_type;location;lat;lon;timestamp;temperature;humidity
41876;DHT22;27555;50.808;4.402;2023-02-01T00:01:22;9.00;99.90
41876;DHT22;27555;50.808;4.402;2023-02-01T00:03:47;8.90;99.90
41876;DHT22;27555;50.808;4.402;2023-02-01T00:06:13;8.90;99.90
41876;DHT22;27555;50.808;4.402;2023-02-01T00:08:38;8.90;99.90
41876;DHT22;27555;50.808;4.402;2023-02-01T00:11:06;8.80;99.90
41876;DHT22;27555;50.808;4.402;2023-02-01T00:13:34;8.80;99.90
41876;DHT22;27555;50.808;4.402;2023-02-01T00:18:33;8.70;99.90
41876;DHT22;27555;50.808;4.402;2023-02-01T00:20:59;8.60;99.90
41876;DHT22;27555;50.808;4.402;2023-02-01T00:23:25;8.50;99.90
41876;DHT22;27555;50.808;4.402;2023-02-01T00:25:51;8.70;99.90
41876;DHT22;27555;50.808;4.402;2023-02-01T00:28:17;8.70;99.90
41876;DHT22;27555;50.808;4.402;2023-02-01T00:30:42;8.70;99.90
41876;DHT22;27555;50.808;4.402;2023-02-01T00:33:08;8.80;99.90
41876;DHT22;27555;50.808;4.402;2023-02-01T00:35:34;8.90;99.90
41876;DHT22;27555;50.808;4.402;2023-02-01T00:38:00;8.60;99.90
41876;DHT22;27555;50.808;4.402;2023-02-01T00:40:26;8.60;99.90
41876;DHT22;27555;50.808;4.402;2023-02-01T00:42:52;8.60;99.90
41876;DHT22;27555;50.808;4.402;2023-02-01T00:45:18;8.50;99.90
41876;DHT22;27555;50.808;4.402;2023-02-01T00:47:43;8.60;99.90
41876;DHT22;27555;50.808;4.402;2023-02-01T00:50:09;8.60;99.90
41876;DHT22;27555;50.808;4.402;2023-02-01T00:52:35;8.50;99.90
41876;DHT22;27555;50.808;4.402;2023-02-01T00:55:01;8.60;99.90
41876;DHT22;27555;50.808;4.402;2023-02-01T00:57:26;8.60;99.90
41876;DHT22;27555;50.808;4.402;2023-02-01T00:59:52;8.30;99.90
41876;DHT22;27555;50.808;4.402;2023-02-01T01:02:17;8.30;99.90
41876;DHT22;27555;50.808;4.402;2023-02-01T01:04:43;8.40;99.90
41876;DHT22;27555;50.808;4.402;2023-02-01T01:07:09;8.50;99.90
41876;DHT22;27555;50.808;4.402;2023-02-01T01:09:34;8.60;99.90
41876;DHT22;27555;50.808;4.402;2023-02-01T01:12:00;8.70;99.90
41876;DHT22;27555;50.808;4.402;2023-02-01T01:14:29;8.60;99.90
41876;DHT22;27555;50.808;4.402;2023-02-01T01:16:54;8.60;99.90
41876;DHT22;27555;50.808;4.402;2023-02-01T01:19:20;8.50;99.90
41876;DHT22;27555;50.808;4.402;2023-02-01T01:21:46;8.30;99.90
41876;DHT22;27555;50.808;4.402;2023-02-01T01:24:11;8.60;99.90
41876;DHT22;27555;50.808;4.402;2023-02-01T01:26:37;8.60;99.90
41876;DHT22;27555;50.808;4.402;2023-02-01T01:29:02;8.70;99.90
41876;DHT22;27555;50.808;4.402;2023-02-01T01:31:29;8.60;99.90
41876;DHT22;27555;50.808;4.402;2023-02-01T01:33:57;8.70;99.90
41876;DHT22;27555;50.808;4.402;2023-02-01T01:36:23;8.70;99.90
41876;DHT22;27555;50.808;4.402;2023-02-01T01:38:49;8.70;99.90
41876;DHT22;27555;50.808;4.402;2023-02-01T01:41:20;8.80;99.90
41876;DHT22;27555;50.808;4.402;2023-02-01T01:43:52;8.70;99.90
41876;DHT22;27555;50.808;4.402;2023-02-01T01:46:30;8.60;99.90
41876;DHT22;27555;50.808;4.402;2023-02-01T01:49:11;8.40;99.90
41876;DHT22;27555;50.808;4.402;2023-02-01T01:51:42;8.20;99.90
41876;DHT22;27555;50.808;4.402;2023-02-01T01:54:19;8.50;99.90
41876;DHT22;27555;50.808;4.402;2023-02-01T01:56:52;8.50;99.90
41876;DHT22;27555;50.808;4.402;2023-02-01T01:59:20;8.60;99.90
41876;DHT22;27555;50.808;4.402;2023-02-01T02:01:47;8.30;99.90
41876;DHT22;27555;50.808;4.402;2023-02-01T02:04:13;8.50;99.90
41876;DHT22;27555;50.808;4.402;2023-02-01T02:06:56;8.40;99.90
41876;DHT22;27555;50.808;4.402;2023-02-01T02:09:24;8.40;99.90
41876;DHT22;27555;50.808;4.402;2023-02-01T02:11:50;8.30;99.90
41876;DHT22;27555;50.808;4.402;2023-02-01T02:14:17;8.50;99.90
41876;DHT22;27555;50.808;4.402;2023-02-01T02:22:25;8.70;99.90
41876;DHT22;27555;50.808;4.402;2023-02-01T02:25:33;8.50;99.90
41876;DHT22;27555;50.808;4.402;2023-02-01T02:28:24;8.50;99.90
41876;DHT22;27555;50.808;4.402;2023-02-01T02:36:37;8.40;99.90
41876;DHT22;27555;50.808;4.402;2023-02-01T02:39:30;8.50;99.90
41876;DHT22;27555;50.808;4.402;2023-02-01T02:51:11;8.20;99.90
41876;DHT22;27555;50.808;4.402;2023-02-01T02:56:42;8.50;99.90
41876;DHT22;27555;50.808;4.402;2023-02-01T02:59:28;8.30;99.90
41876;DHT22;27555;50.808;4.402;2023-02-01T03:02:13;8.30;99.90
41876;DHT22;27555;50.808;4.402;2023-02-01T03:04:58;8.30;99.90
41876;DHT22;27555;50.808;4.402;2023-02-01T03:10:30;8.20;99.90
41876;DHT22;27555;50.808;4.402;2023-02-01T03:13:05;8.30;99.90
41876;DHT22;27555;50.808;4.402;2023-02-01T03:15:36;8.00;99.90
41876;DHT22;27555;50.808;4.402;2023-02-01T03:18:10;8.00;99.90
41876;DHT22;27555;50.808;4.402;2023-02-01T03:20:38;8.10;99.90
41876;DHT22;27555;50.808;4.402;2023-02-01T03:23:06;8.00;99.90
41876;DHT22;27555;50.808;4.402;2023-02-01T03:25:33;8.00;99.90
41876;DHT22;27555;50.808;4.402;2023-02-01T03:28:04;8.20;99.90
41876;DHT22;27555;50.808;4.402;2023-02-01T03:30:57;8.20;99.90
41876;DHT22;27555;50.808;4.402;2023-02-01T03:33:25;8.10;99.90
41876;DHT22;27555;50.808;4.402;2023-02-01T03:38:57;7.90;99.90
41876;DHT22;27555;50.808;4.402;2023-02-01T03:41:41;7.80;99.90
41876;DHT22;27555;50.808;4.402;2023-02-01T03:44:38;7.50;99.90
41876;DHT22;27555;50.808;4.402;2023-02-01T03:47:12;7.70;99.90
41876;DHT22;27555;50.808;4.402;2023-02-01T03:49:40;7.80;99.90
41876;DHT22;27555;50.808;4.402;2023-02-01T03:54:47;7.50;99.90
41876;DHT22;27555;50.808;4.402;2023-02-01T03:57:19;7.60;99.90
41876;DHT22;27555;50.808;4.402;2023-02-01T03:59:46;7.50;99.90
41876;DHT22;27555;50.808;4.402;2023-02-01T04:02:12;7.40;99.90
41876;DHT22;27555;50.808;4.402;2023-02-01T04:04:37;7.60;99.90
41876;DHT22;27555;50.808;4.402;2023-02-01T04:07:03;7.70;99.90
41876;DHT22;27555;50.808;4.402;2023-02-01T04:09:29;7.40;99.90
41876;DHT22;27555;50.808;4.402;2023-02-01T04:11:56;7.30;99.90
41876;DHT22;27555;50.808;4.402;2023-02-01T04:14:22;7.30;99.90
41876;DHT22;27555;50.808;4.402;2023-02-01T04:16:47;7.70;99.90
41876;DHT22;27555;50.808;4.402;2023-02-01T04:19:13;7.50;99.90
41876;DHT22;27555;50.808;4.402;2023-02-01T04:21:38;7.40;99.90
41876;DHT22;27555;50.808;4.402;2023-02-01T04:24:07;7.40;99.90
41876;DHT22;27555;50.808;4.402;2023-02-01T04:26:33;7.20;99.90
41876;DHT22;27555;50.808;4.402;2023-02-01T04:28:59;7.20;99.90
41876;DHT22;27555;50.808;4.402;2023-02-01T04:31:25;7.20;99.90
41876;DHT22;27555;50.808;4.402;2023-02-01T04:33:54;7.10;99.90
41876;DHT22;27555;50.808;4.402;2023-02-01T04:36:21;7.30;99.90
41876;DHT22;27555;50.808;4.402;2023-02-01T04:38:51;7.30;99.90
41876;DHT22;27555;50.808;4.402;2023-02-01T04:41:17;7.30;99.90
41876;DHT22;27555;50.808;4.402;2023-02-01T04:43:46;6.90;99.90
41876;DHT22;27555;50.808;4.402;2023-02-01T04:46:13;6.90;99.90
41876;DHT22;27555;50.808;4.402;2023-02-01T04:48:39;7.00;99.90
41876;DHT22;27555;50.808;4.402;2023-02-01T04:51:05;7.10;99.90
41876;DHT22;27555;50.808;4.402;2023-02-01T04:53:32;7.20;99.90
41876;DHT22;27555;50.808;4.402;2023-02-01T04:55:57;7.30;99.90
41876;DHT22;27555;50.808;4.402;2023-02-01T04:58:23;7.00;99.90
41876;DHT22;27555;50.808;4.402;2023-02-01T05:00:49;6.90;99.90
41876;DHT22;27555;50.808;4.402;2023-02-01T05:03:16;6.70;99.90
41876;DHT22;27555;50.808;4.402;2023-02-01T05:05:42;6.60;99.90
41876;DHT22;27555;50.808;4.402;2023-02-01T05:08:08;6.70;99.90
41876;DHT22;27555;50.808;4.402;2023-02-01T05:10:33;6.70;99.90
41876;DHT22;27555;50.808;4.402;2023-02-01T05:13:00;6.80;99.90
41876;DHT22;27555;50.808;4.402;2023-02-01T05:15:45;6.90;99.90
41876;DHT22;27555;50.808;4.402;2023-02-01T05:18:27;6.80;99.90
41876;DHT22;27555;50.808;4.402;2023-02-01T05:20:53;6.70;99.90
41876;DHT22;27555;50.808;4.402;2023-02-01T05:23:18;6.90;99.90
41876;DHT22;27555;50.808;4.402;2023-02-01T05:25:44;6.80;99.90
41876;DHT22;27555;50.808;4.402;2023-02-01T05:28:09;6.60;99.90
41876;DHT22;27555;50.808;4.402;2023-02-01T05:30:35;6.70;99.90
41876;DHT22;27555;50.808;4.402;2023-02-01T05:33:02;6.60;99.90
41876;DHT22;27555;50.808;4.402;2023-02-01T05:35:28;6.60;99.90
41876;DHT22;27555;50.808;4.402;2023-02-01T05:37:53;6.50;99.90
41876;DHT22;27555;50.808;4.402;2023-02-01T05:40:19;6.30;99.90
41876;DHT22;27555;50.808;4.402;2023-02-01T05:42:45;6.10;99.90
41876;DHT22;27555;50.808;4.402;2023-02-01T05:45:11;6.30;99.90
41876;DHT22;27555;50.808;4.402;2023-02-01T05:47:37;6.30;99.90
41876;DHT22;27555;50.808;4.402;2023-02-01T05:50:04;6.30;99.90
41876;DHT22;27555;50.808;4.402;2023-02-01T05:52:30;6.40;99.90
41876;DHT22;27555;50.808;4.402;2023-02-01T05:54:57;6.50;99.90
41876;DHT22;27555;50.808;4.402;2023-02-01T05:57:23;6.30;99.90
41876;DHT22;27555;50.808;4.402;2023-02-01T05:59:49;6.20;99.90
41876;DHT22;27555;50.808;4.402;2023-02-01T06:02:17;6.10;99.90
41876;DHT22;27555;50.808;4.402;2023-02-01T06:04:43;6.30;99.90
41876;DHT22;27555;50.808;4.402;2023-02-01T06:07:13;6.50;99.90
41876;DHT22;27555;50.808;4.402;2023-02-01T06:09:38;6.40;99.90
41876;DHT22;27555;50.808;4.402;2023-02-01T06:12:04;6.30;99.90
41876;DHT22;27555;50.808;4.402;2023-02-01T06:14:30;6.30;99.90
41876;DHT22;27555;50.808;4.402;2023-02-01T06:16:56;6.30;99.90
41876;DHT22;27555;50.808;4.402;2023-02-01T06:19:22;6.30;99.90
41876;DHT22;27555;50.808;4.402;2023-02-01T06:21:48;6.10;99.90
41876;DHT22;27555;50.808;4.402;2023-02-01T06:24:14;6.00;99.90
41876;DHT22;27555;50.808;4.402;2023-02-01T06:26:40;5.90;99.90
41876;DHT22;27555;50.808;4.402;2023-02-01T06:29:06;6.00;99.90
41876;DHT22;27555;50.808;4.402;2023-02-01T06:31:33;6.00;99.90
41876;DHT22;27555;50.808;4.402;2023-02-01T06:33:58;6.20;99.90
41876;DHT22;27555;50.808;4.402;2023-02-01T06:36:24;6.30;99.90
41876;DHT22;27555;50.808;4.402;2023-02-01T06:38:49;6.30;99.90
41876;DHT22;27555;50.808;4.402;2023-02-01T06:41:16;6.30;99.90
41876;DHT22;27555;50.808;4.402;2023-02-01T06:43:42;6.30;99.90
41876;DHT22;27555;50.808;4.402;2023-02-01T06:46:12;6.30;99.90
41876;DHT22;27555;50.808;4.402;2023-02-01T06:48:38;6.10;99.90
41876;DHT22;27555;50.808;4.402;2023-02-01T06:51:04;6.10;99.90
41876;DHT22;27555;50.808;4.402;2023-02-01T06:53:30;6.20;99.90
41876;DHT22;27555;50.808;4.402;2023-02-01T06:55:57;6.20;99.90
41876;DHT22;27555;50.808;4.402;2023-02-01T06:58:24;6.00;99.90
41876;DHT22;27555;50.808;4.402;2023-02-01T07:00:52;6.00;99.90
41876;DHT22;27555;50.808;4.402;2023-02-01T07:03:19;6.10;99.90
41876;DHT22;27555;50.808;4.402;2023-02-01T07:05:44;6.10;99.90
41876;DHT22;27555;50.808;4.402;2023-02-01T07:08:10;6.10;99.90
41876;DHT22;27555;50.808;4.402;2023-02-01T07:10:37;6.20;99.90
41876;DHT22;27555;50.808;4.402;2023-02-01T07:13:02;6.20;99.90
41876;DHT22;27555;50.808;4.402;2023-02-01T07:15:28;6.00;99.90
41876;DHT22;27555;50.808;4.402;2023-02-01T07:17:55;6.00;99.90
41876;DHT22;27555;50.808;4.402;2023-02-01T07:20:21;6.00;99.90
41876;DHT22;27555;50.808;4.402;2023-02-01T07:22:46;5.90;99.90
41876;DHT22;27555;50.808;4.402;2023-02-01T07:25:12;6.10;99.90
41876;DHT22;27555;50.808;4.402;2023-02-01T07:27:38;6.30;99.90
41876;DHT22;27555;50.808;4.402;2023-02-01T07:30:04;6.10;99.90
41876;DHT22;27555;50.808;4.402;2023-02-01T07:32:30;5.70;99.90
41876;DHT22;27555;50.808;4.402;2023-02-01T07:34:57;5.90;99.90
41876;DHT22;27555;50.808;4.402;2023-02-01T07:37:23;6.10;99.90
41876;DHT22;27555;50.808;4.402;2023-02-01T07:39:50;6.00;99.90
41876;DHT22;27555;50.808;4.402;2023-02-01T07:42:15;6.10;99.90
41876;DHT22;27555;50.808;4.402;2023-02-01T07:44:41;6.20;99.90
41876;DHT22;27555;50.808;4.402;2023-02-01T07:47:07;6.00;99.90
41876;DHT22;27555;50.808;4.402;2023-02-01T07:49:32;5.90;99.90
41876;DHT22;27555;50.808;4.402;2023-02-01T07:51:58;6.20;99.90
41876;DHT22;27555;50.808;4.402;2023-02-01T07:54:23;6.30;99.90
41876;DHT22;27555;50.808;4.402;2023-02-01T07:56:49;6.60;99.90
41876;DHT22;27555;50.808;4.402;2023-02-01T07:59:14;6.60;99.90
41876;DHT22;27555;50.808;4.402;2023-02-01T08:01:41;6.60;99.90
41876;DHT22;27555;50.808;4.402;2023-02-01T08:04:10;6.70;99.90
41876;DHT22;27555;50.808;4.402;2023-02-01T08:06:38;6.90;99.90
41876;DHT22;27555;50.808;4.402;2023-02-01T08:09:07;6.90;99.90
41876;DHT22;27555;50.808;4.402;2023-02-01T08:11:36;6.90;99.90
41876;DHT22;27555;50.808;4.402;2023-02-01T08:14:04;6.90;99.90
41876;DHT22;27555;50.808;4.402;2023-02-01T08:16:29;7.00;99.90
41876;DHT22;27555;50.808;4.402;2023-02-01T08:18:55;7.30;99.90
41876;DHT22;27555;50.808;4.402;2023-02-01T08:21:25;7.30;99.90
41876;DHT22;27555;50.808;4.402;2023-02-01T08:23:51;7.50;99.90
41876;DHT22;27555;50.808;4.402;2023-02-01T08:26:22;7.20;99.90
41876;DHT22;27555;50.808;4.402;2023-02-01T08:28:51;7.30;99.90
41876;DHT22;27555;50.808;4.402;2023-02-01T08:31:19;7.10;99.90
41876;DHT22;27555;50.808;4.402;2023-02-01T08:33:50;7.20;99.90
41876;DHT22;27555;50.808;4.402;2023-02-01T08:36:17;7.20;99.90
41876;DHT22;27555;50.808;4.402;2023-02-01T08:38:42;7.20;99.90
41876;DHT22;27555;50.808;4.402;2023-02-01T08:41:13;7.10;99.90
41876;DHT22;27555;50.808;4.402;2023-02-01T08:43:40;7.10;99.90
41876;DHT22;27555;50.808;4.402;2023-02-01T08:46:07;7.20;99.90
41876;DHT22;27555;50.808;4.402;2023-02-01T08:48:34;7.20;99.90
41876;DHT22;27555;50.808;4.402;2023-02-01T08:51:04;7.50;99.90
41876;DHT22;27555;50.808;4.402;2023-02-01T08:53:30;7.70;99.90
41876;DHT22;27555;50.808;4.402;2023-02-01T08:55:56;7.80;99.90
41876;DHT22;27555;50.808;4.402;2023-02-01T08:58:22;7.90;99.90
41876;DHT22;27555;50.808;4.402;2023-02-01T09:00:48;8.00;99.90
41876;DHT22;27555;50.808;4.402;2023-02-01T09:03:14;7.80;99.90
41876;DHT22;27555;50.808;4.402;2023-02-01T09:05:40;7.90;99.90
41876;DHT22;27555;50.808;4.402;2023-02-01T09:08:06;8.00;99.90
41876;DHT22;27555;50.808;4.402;2023-02-01T09:10:32;8.00;99.90
41876;DHT22;27555;50.808;4.402;2023-02-01T09:12:58;8.00;99.90
41876;DHT22;27555;50.808;4.402;2023-02-01T09:15:23;8.00;99.90
41876;DHT22;27555;50.808;4.402;2023-02-01T09:17:49;8.30;99.90
41876;DHT22;27555;50.808;4.402;2023-02-01T09:20:15;8.10;99.90
41876;DHT22;27555;50.808;4.402;2023-02-01T09:22:41;8.30;99.90
41876;DHT22;27555;50.808;4.402;2023-02-01T09:25:07;8.60;99.90
41876;DHT22;27555;50.808;4.402;2023-02-01T09:27:33;8.70;99.90
41876;DHT22;27555;50.808;4.402;2023-02-01T09:29:59;8.50;99.90
41876;DHT22;27555;50.808;4.402;2023-02-01T09:32:24;8.90;99.90
41876;DHT22;27555;50.808;4.402;2023-02-01T09:34:51;9.10;99.90
41876;DHT22;27555;50.808;4.402;2023-02-01T09:37:17;9.20;99.90
41876;DHT22;27555;50.808;4.402;2023-02-01T09:39:43;9.70;99.90
41876;DHT22;27555;50.808;4.402;2023-02-01T09:45:36;11.60;99.90
41876;DHT22;27555;50.808;4.402;2023-02-01T09:48:11;12.60;99.90
41876;DHT22;27555;50.808;4.402;2023-02-01T09:50:43;13.30;99.50
41876;DHT22;27555;50.808;4.402;2023-02-01T09:55:50;14.10;97.30
41876;DHT22;27555;50.808;4.402;2023-02-01T09:58:39;13.40;97.70
41876;DHT22;27555;50.808;4.402;2023-02-01T10:01:23;13.50;97.60
41876;DHT22;27555;50.808;4.402;2023-02-01T10:03:49;13.70;97.90
41876;DHT22;27555;50.808;4.402;2023-02-01T10:06:33;14.40;96.80
41876;DHT22;27555;50.808;4.402;2023-02-01T10:12:36;14.90;95.70
41876;DHT22;27555;50.808;4.402;2023-02-01T10:15:24;13.80;96.30
41876;DHT22;27555;50.808;4.402;2023-02-01T10:26:18;10.70;99.90
41876;DHT22;27555;50.808;4.402;2023-02-01T10:28:56;10.50;99.90
41876;DHT22;27555;50.808;4.402;2023-02-01T10:31:28;10.10;99.90
41876;DHT22;27555;50.808;4.402;2023-02-01T10:33:59;9.80;99.90
41876;DHT22;27555;50.808;4.402;2023-02-01T10:36:35;9.80;99.90
41876;DHT22;27555;50.808;4.402;2023-02-01T10:39:04;9.70;99.90
41876;DHT22;27555;50.808;4.402;2023-02-01T10:41:36;9.80;99.90
41876;DHT22;27555;50.808;4.402;2023-02-01T10:44:05;9.90;99.90
41876;DHT22;27555;50.808;4.402;2023-02-01T10:46:33;9.80;99.90
41876;DHT22;27555;50.808;4.402;2023-02-01T10:49:03;9.50;99.90
41876;DHT22;27555;50.808;4.402;2023-02-01T10:51:46;9.70;99.90
41876;DHT22;27555;50.808;4.402;2023-02-01T10:54:20;9.60;99.90
41876;DHT22;27555;50.808;4.402;2023-02-01T10:56:46;9.40;99.90
41876;DHT22;27555;50.808;4.402;2023-02-01T10:59:18;9.60;99.90
41876;DHT22;27555;50.808;4.402;2023-02-01T11:01:46;9.60;99.90
41876;DHT22;27555;50.808;4.402;2023-02-01T11:04:19;9.90;99.90
41876;DHT22;27555;50.808;4.402;2023-02-01T11:09:38;10.60;99.90
41876;DHT22;27555;50.808;4.402;2023-02-01T11:12:05;10.90;99.70
41876;DHT22;27555;50.808;4.402;2023-02-01T11:14:40;11.40;99.20
41876;DHT22;27555;50.808;4.402;2023-02-01T11:17:25;11.20;99.40
41876;DHT22;27555;50.808;4.402;2023-02-01T11:20:02;11.20;99.20
41876;DHT22;27555;50.808;4.402;2023-02-01T11:22:28;11.60;99.00
41876;DHT22;27555;50.808;4.402;2023-02-01T11:24:55;11.90;98.40
41876;DHT22;27555;50.808;4.402;2023-02-01T11:27:22;12.10;98.50
41876;DHT22;27555;50.808;4.402;2023-02-01T11:29:55;12.80;97.40
41876;DHT22;27555;50.808;4.402;2023-02-01T11:32:23;13.10;97.00
41876;DHT22;27555;50.808;4.402;2023-02-01T11:34:57;13.60;96.70
41876;DHT22;27555;50.808;4.402;2023-02-01T11:37:36;14.00;95.60
41876;DHT22;27555;50.808;4.402;2023-02-01T11:43:23;13.60;96.00
41876;DHT22;27555;50.808;4.402;2023-02-01T11:46:03;13.70;95.80
41876;DHT22;27555;50.808;4.402;2023-02-01T11:48:39;13.20;95.90
41876;DHT22;27555;50.808;4.402;2023-02-01T11:57:04;13.80;95.50
41876;DHT22;27555;50.808;4.402;2023-02-01T12:05:40;14.50;94.40
41876;DHT22;27555;50.808;4.402;2023-02-01T12:27:47;12.10;95.50
41876;DHT22;27555;50.808;4.402;2023-02-01T12:33:19;12.40;95.50
41876;DHT22;27555;50.808;4.402;2023-02-01T12:46:56;13.20;94.70
41876;DHT22;27555;50.808;4.402;2023-02-01T12:49:38;12.80;94.50
41876;DHT22;27555;50.808;4.402;2023-02-01T12:52:11;12.40;94.70
41876;DHT22;27555;50.808;4.402;2023-02-01T12:54:46;12.30;95.00
41876;DHT22;27555;50.808;4.402;2023-02-01T12:57:17;13.00;94.50
41876;DHT22;27555;50.808;4.402;2023-02-01T13:05:44;13.70;93.40
41876;DHT22;27555;50.808;4.402;2023-02-01T13:08:16;13.40;93.70
41876;DHT22;27555;50.808;4.402;2023-02-01T13:10:47;14.20;93.00
41876;DHT22;27555;50.808;4.402;2023-02-01T13:13:26;13.20;93.70
41876;DHT22;27555;50.808;4.402;2023-02-01T13:16:04;12.70;94.20
41876;DHT22;27555;50.808;4.402;2023-02-01T13:18:35;12.20;94.60
41876;DHT22;27555;50.808;4.402;2023-02-01T13:21:07;12.20;95.00
41876;DHT22;27555;50.808;4.402;2023-02-01T13:23:38;12.80;94.70
41876;DHT22;27555;50.808;4.402;2023-02-01T13:26:05;12.30;94.80
41876;DHT22;27555;50.808;4.402;2023-02-01T13:28:45;12.10;94.80
41876;DHT22;27555;50.808;4.402;2023-02-01T13:42:24;11.50;95.80
41876;DHT22;27555;50.808;4.402;2023-02-01T13:45:06;11.70;95.70
41876;DHT22;27555;50.808;4.402;2023-02-01T13:47:41;11.80;95.50
41876;DHT22;27555;50.808;4.402;2023-02-01T13:52:43;11.50;95.70
41876;DHT22;27555;50.808;4.402;2023-02-01T13:55:23;11.50;95.70
41876;DHT22;27555;50.808;4.402;2023-02-01T13:58:01;11.40;95.90
41876;DHT22;27555;50.808;4.402;2023-02-01T14:00:38;11.30;95.90
41876;DHT22;27555;50.808;4.402;2023-02-01T14:03:13;11.30;95.90
41876;DHT22;27555;50.808;4.402;2023-02-01T14:08:12;11.20;96.20
41876;DHT22;27555;50.808;4.402;2023-02-01T14:26:50;11.00;96.90
41876;DHT22;27555;50.808;4.402;2023-02-01T14:32:04;11.20;96.60
41876;DHT22;27555;50.808;4.402;2023-02-01T14:42:35;11.20;97.10
41876;DHT22;27555;50.808;4.402;2023-02-01T14:58:23;11.00;97.30
41876;DHT22;27555;50.808;4.402;2023-02-01T15:00:58;10.90;97.60
41876;DHT22;27555;50.808;4.402;2023-02-01T15:06:38;10.70;98.20
41876;DHT22;27555;50.808;4.402;2023-02-01T15:09:20;11.10;97.80
41876;DHT22;27555;50.808;4.402;2023-02-01T15:12:18;10.80;98.30
41876;DHT22;27555;50.808;4.402;2023-02-01T15:15:09;10.80;98.50
41876;DHT22;27555;50.808;4.402;2023-02-01T15:17:35;11.10;97.90
41876;DHT22;27555;50.808;4.402;2023-02-01T15:20:13;10.70;98.40
41876;DHT22;27555;50.808;4.402;2023-02-01T15:22:43;11.00;98.30
41876;DHT22;27555;50.808;4.402;2023-02-01T15:25:20;10.80;98.70
41876;DHT22;27555;50.808;4.402;2023-02-01T15:27:46;10.90;98.60
41876;DHT22;27555;50.808;4.402;2023-02-01T15:32:44;11.10;98.50
41876;DHT22;27555;50.808;4.402;2023-02-01T15:35:36;11.20;98.30
41876;DHT22;27555;50.808;4.402;2023-02-01T15:38:31;11.30;98.00
41876;DHT22;27555;50.808;4.402;2023-02-01T15:43:49;10.30;99.30
41876;DHT22;27555;50.808;4.402;2023-02-01T15:46:40;10.40;99.50
41876;DHT22;27555;50.808;4.402;2023-02-01T15:49:36;10.70;99.10
41876;DHT22;27555;50.808;4.402;2023-02-01T15:52:38;10.70;99.10
41876;DHT22;27555;50.808;4.402;2023-02-01T15:55:25;10.70;99.10
41876;DHT22;27555;50.808;4.402;2023-02-01T15:57:52;10.60;99.40
41876;DHT22;27555;50.808;4.402;2023-02-01T16:00:26;10.40;99.80
41876;DHT22;27555;50.808;4.402;2023-02-01T16:02:59;10.20;99.90
41876;DHT22;27555;50.808;4.402;2023-02-01T16:05:38;10.10;99.90
41876;DHT22;27555;50.808;4.402;2023-02-01T16:08:22;10.50;99.80
41876;DHT22;27555;50.808;4.402;2023-02-01T16:10:54;10.50;99.60
41876;DHT22;27555;50.808;4.402;2023-02-01T16:13:20;10.60;99.50
41876;DHT22;27555;50.808;4.402;2023-02-01T16:15:47;10.70;99.50
41876;DHT22;27555;50.808;4.402;2023-02-01T16:18:14;10.70;99.50
41876;DHT22;27555;50.808;4.402;2023-02-01T16:20:41;10.70;99.50
41876;DHT22;27555;50.808;4.402;2023-02-01T16:23:08;10.60;99.70
41876;DHT22;27555;50.808;4.402;2023-02-01T16:25:35;10.70;99.70
41876;DHT22;27555;50.808;4.402;2023-02-01T16:28:00;10.30;99.90
41876;DHT22;27555;50.808;4.402;2023-02-01T16:30:26;10.20;99.90
41876;DHT22;27555;50.808;4.402;2023-02-01T16:32:57;10.30;99.90
41876;DHT22;27555;50.808;4.402;2023-02-01T16:35:34;10.50;99.90
41876;DHT22;27555;50.808;4.402;2023-02-01T16:38:11;10.60;99.90
41876;DHT22;27555;50.808;4.402;2023-02-01T16:40:41;10.70;99.80
41876;DHT22;27555;50.808;4.402;2023-02-01T16:45:45;10.50;99.90
41876;DHT22;27555;50.808;4.402;2023-02-01T16:48:26;10.60;99.90
41876;DHT22;27555;50.808;4.402;2023-02-01T16:50:57;10.70;99.90
41876;DHT22;27555;50.808;4.402;2023-02-01T16:53:24;10.10;99.90
41876;DHT22;27555;50.808;4.402;2023-02-01T16:55:50;10.30;99.90
41876;DHT22;27555;50.808;4.402;2023-02-01T16:58:18;10.10;99.90
41876;DHT22;27555;50.808;4.402;2023-02-01T17:00:43;10.10;99.90
41876;DHT22;27555;50.808;4.402;2023-02-01T17:03:10;10.20;99.90
41876;DHT22;27555;50.808;4.402;2023-02-01T17:05:43;10.70;99.90
41876;DHT22;27555;50.808;4.402;2023-02-01T17:08:13;10.50;99.90
41876;DHT22;27555;50.808;4.402;2023-02-01T17:10:39;10.30;99.90
41876;DHT22;27555;50.808;4.402;2023-02-01T17:13:09;10.40;99.90
41876;DHT22;27555;50.808;4.402;2023-02-01T17:15:36;10.70;99.90
41876;DHT22;27555;50.808;4.402;2023-02-01T17:18:02;10.40;99.90
41876;DHT22;27555;50.808;4.402;2023-02-01T17:20:29;10.20;99.90
41876;DHT22;27555;50.808;4.402;2023-02-01T17:22:58;10.40;99.90
41876;DHT22;27555;50.808;4.402;2023-02-01T17:25:26;10.50;99.90
41876;DHT22;27555;50.808;4.402;2023-02-01T17:27:52;10.40;99.90
41876;DHT22;27555;50.808;4.402;2023-02-01T17:30:18;10.40;99.90
41876;DHT22;27555;50.808;4.402;2023-02-01T17:32:44;10.20;99.90
41876;DHT22;27555;50.808;4.402;2023-02-01T17:35:19;10.20;99.90
41876;DHT22;27555;50.808;4.402;2023-02-01T17:37:45;10.20;99.90
41876;DHT22;27555;50.808;4.402;2023-02-01T17:40:11;10.10;99.90
41876;DHT22;27555;50.808;4.402;2023-02-01T17:42:37;10.00;99.90
41876;DHT22;27555;50.808;4.402;2023-02-01T17:47:48;10.20;99.90
41876;DHT22;27555;50.808;4.402;2023-02-01T17:50:14;10.30;99.90
41876;DHT22;27555;50.808;4.402;2023-02-01T17:52:39;10.40;99.90
41876;DHT22;27555;50.808;4.402;2023-02-01T17:55:25;10.40;99.90
41876;DHT22;27555;50.808;4.402;2023-02-01T17:57:51;10.20;99.90
41876;DHT22;27555;50.808;4.402;2023-02-01T18:00:18;10.30;99.90
41876;DHT22;27555;50.808;4.402;2023-02-01T18:02:44;10.20;99.90
41876;DHT22;27555;50.808;4.402;2023-02-01T18:05:45;10.20;99.90
41876;DHT22;27555;50.808;4.402;2023-02-01T18:08:15;10.00;99.90
41876;DHT22;27555;50.808;4.402;2023-02-01T18:10:41;10.10;99.90
41876;DHT22;27555;50.808;4.402;2023-02-01T18:13:09;10.10;99.90
41876;DHT22;27555;50.808;4.402;2023-02-01T18:15:36;9.90;99.90
41876;DHT22;27555;50.808;4.402;2023-02-01T18:18:02;10.00;99.90
41876;DHT22;27555;50.808;4.402;2023-02-01T18:20:27;10.20;99.90
41876;DHT22;27555;50.808;4.402;2023-02-01T18:22:53;10.00;99.90
41876;DHT22;27555;50.808;4.402;2023-02-01T18:25:23;10.10;99.90
41876;DHT22;27555;50.808;4.402;2023-02-01T18:27:54;10.10;99.90
41876;DHT22;27555;50.808;4.402;2023-02-01T18:30:21;10.20;99.90
41876;DHT22;27555;50.808;4.402;2023-02-01T18:32:47;10.20;99.90
41876;DHT22;27555;50.808;4.402;2023-02-01T18:35:23;10.20;99.90
41876;DHT22;27555;50.808;4.402;2023-02-01T18:37:50;10.20;99.90
41876;DHT22;27555;50.808;4.402;2023-02-01T18:40:19;10.40;99.90
41876;DHT22;27555;50.808;4.402;2023-02-01T18:42:45;10.40;99.90
41876;DHT22;27555;50.808;4.402;2023-02-01T18:47:58;10.30;99.90
41876;DHT22;27555;50.808;4.402;2023-02-01T18:50:28;10.20;99.90
41876;DHT22;27555;50.808;4.402;2023-02-01T18:52:56;10.10;99.90
41876;DHT22;27555;50.808;4.402;2023-02-01T18:55:22;9.90;99.90
41876;DHT22;27555;50.808;4.402;2023-02-01T18:57:49;10.10;99.90
41876;DHT22;27555;50.808;4.402;2023-02-01T19:00:15;10.00;99.90